Time;durP1;ratioP1;P1;durP2;ratioP2;P2;SDS_P1;SDS_P2;PMS_P1;PMS_P2;Temp;Humidity;BMP_temperature;BMP_pressure;BME280_temperature;BME280_humidity;BME280_pressure;Samples;Min_cycle;Max_cycle;Signal;HPM_P1;HPM_P2
2021/07/16 00:01:18;;;;;;;4.90;3.33;;;;;;;20.57;nan;100551.75;5019871;28;20033;-83
2021/07/16 00:03:43;;;;;;;5.93;3.20;;;;;;;20.61;nan;100548.91;4999188;28;20125;-83
2021/07/16 00:06:09;;;;;;;4.68;3.83;;;;;;;20.56;nan;100544.63;5000863;28;20061;-82
2021/07/16 00:08:34;;;;;;;6.28;3.97;;;;;;;20.58;nan;100545.44;5015723;28;20496;-83
2021/07/16 00:11:00;;;;;;;5.63;3.00;;;;;;;20.54;nan;100551.91;5016349;28;20547;-83
2021/07/16 00:13:25;;;;;;;4.35;2.58;;;;;;;20.54;nan;100548.31;4998808;28;20034;-83
2021/07/16 00:15:50;;;;;;;3.22;2.38;;;;;;;20.51;nan;100548.44;5016519;28;20041;-82
2021/07/16 00:18:15;;;;;;;4.88;2.53;;;;;;;20.52;nan;100556.44;5017220;28;20480;-82
2021/07/16 00:20:44;;;;;;;5.65;2.47;;;;;;;20.46;nan;100550.47;4998452;28;20034;-83
2021/07/16 00:23:10;;;;;;;5.63;2.65;;;;;;;20.45;nan;100552.28;4999649;28;20044;-83
2021/07/16 00:25:35;;;;;;;3.35;2.70;;;;;;;20.39;nan;100544.53;4962800;28;20503;-83
2021/07/16 00:28:00;;;;;;;3.65;2.60;;;;;;;20.25;nan;100533.56;4987114;28;20125;-83
2021/07/16 00:30:25;;;;;;;3.92;2.85;;;;;;;20.24;nan;100526.50;5001110;28;20037;-83
2021/07/16 00:32:51;;;;;;;5.05;2.60;;;;;;;20.11;nan;100536.91;4996822;28;20041;-83
2021/07/16 00:35:16;;;;;;;5.13;3.42;;;;;;;20.07;nan;100530.81;5018589;28;20034;-83
2021/07/16 00:37:42;;;;;;;3.45;2.70;;;;;;;20.06;nan;100538.91;4997117;28;20042;-83
2021/07/16 00:40:10;;;;;;;3.83;2.72;;;;;;;19.98;nan;100541.06;5002191;28;20033;-83
2021/07/16 00:42:35;;;;;;;4.88;3.25;;;;;;;19.92;nan;100543.09;4996964;28;20034;-83
2021/07/16 00:45:00;;;;;;;5.03;3.28;;;;;;;19.91;nan;100551.19;5015408;28;20062;-83
2021/07/16 00:47:26;;;;;;;4.22;3.05;;;;;;;19.90;nan;100555.69;4996839;28;20555;-83
2021/07/16 00:49:51;;;;;;;5.55;3.55;;;;;;;19.97;nan;100556.28;4997667;28;20102;-83
2021/07/16 00:52:16;;;;;;;4.05;3.13;;;;;;;19.96;nan;100549.16;4997754;28;20093;-83
2021/07/16 00:54:42;;;;;;;5.05;3.05;;;;;;;20.04;nan;100548.81;5014672;28;20046;-84
2021/07/16 00:57:07;;;;;;;4.18;3.20;;;;;;;20.09;nan;100545.00;4999260;28;20041;-83
2021/07/16 00:59:33;;;;;;;4.38;3.08;;;;;;;20.14;nan;100542.97;5014325;28;20042;-83
2021/07/16 01:02:00;;;;;;;4.25;2.70;;;;;;;20.20;nan;100541.84;4982210;28;20076;-82
2021/07/16 01:04:26;;;;;;;3.83;2.40;;;;;;;20.22;nan;100542.63;5014200;28;20146;-83
2021/07/16 01:06:51;;;;;;;3.90;2.90;;;;;;;20.28;nan;100538.81;5015683;28;20069;-83
2021/07/16 01:09:17;;;;;;;3.97;3.13;;;;;;;20.32;nan;100540.41;4978162;28;20038;-82
2021/07/16 01:11:42;;;;;;;5.00;3.30;;;;;;;20.31;nan;100544.03;4957684;28;20046;-83
2021/07/16 01:14:10;;;;;;;3.90;2.85;;;;;;;20.34;nan;100538.53;4989782;28;20800;-82
2021/07/16 01:16:35;;;;;;;4.90;3.08;;;;;;;20.33;nan;100537.66;5011923;28;20037;-83
2021/07/16 01:19:01;;;;;;;4.38;3.22;;;;;;;20.38;nan;100532.06;5010590;28;20049;-83
2021/07/16 01:21:32;;;;;;;4.85;3.00;;;;;;;20.38;nan;100529.38;5012831;28;20037;-83
2021/07/16 01:23:57;;;;;;;4.05;2.95;;;;;;;20.38;nan;100521.34;5010567;28;20323;-83
2021/07/16 01:26:23;;;;;;;4.38;3.03;;;;;;;20.40;nan;100522.16;5012336;28;20034;-83
2021/07/16 01:28:50;;;;;;;4.10;2.88;;;;;;;20.36;nan;100520.56;5011042;28;20500;-82
2021/07/16 01:31:16;;;;;;;3.60;3.10;;;;;;;20.42;nan;100520.28;4979703;28;20038;-83
2021/07/16 01:33:42;;;;;;;5.78;2.95;;;;;;;20.40;nan;100515.94;4994609;28;20071;-83
2021/07/16 01:36:07;;;;;;;3.85;2.90;;;;;;;20.36;nan;100520.56;5011329;28;20053;-83
2021/07/16 01:38:32;;;;;;;3.60;2.95;;;;;;;20.36;nan;100523.25;4994802;28;20037;-83
2021/07/16 01:40:58;;;;;;;4.45;2.83;;;;;;;20.39;nan;100515.06;5011496;28;20120;-83
2021/07/16 01:43:25;;;;;;;4.63;2.80;;;;;;;20.46;nan;100527.25;5012867;28;20037;-83
2021/07/16 01:45:50;;;;;;;4.65;3.45;;;;;;;20.48;nan;100528.00;5010888;28;20061;-83
2021/07/16 01:48:16;;;;;;;6.13;3.10;;;;;;;20.51;nan;100527.91;5012504;28;20049;-83
2021/07/16 01:50:47;;;;;;;4.65;2.97;;;;;;;20.57;nan;100516.91;4976727;28;20105;-82
2021/07/16 01:53:15;;;;;;;5.13;2.72;;;;;;;20.57;nan;100516.91;5011029;28;20467;-83
2021/07/16 01:55:41;;;;;;;3.42;2.25;;;;;;;20.55;nan;100521.47;4975006;28;20420;-83
2021/07/16 01:58:09;;;;;;;4.75;2.78;;;;;;;20.43;nan;100519.31;4991480;28;20511;-83
2021/07/16 02:00:41;;;;;;;5.22;2.90;;;;;;;20.34;nan;100522.44;4992831;28;20040;-82
2021/07/16 02:03:10;;;;;;;3.20;2.50;;;;;;;20.27;nan;100520.97;4996640;28;20074;-82
2021/07/16 02:05:37;;;;;;;3.78;2.20;;;;;;;20.18;nan;100519.63;5012240;28;20048;-83
2021/07/16 02:08:07;;;;;;;5.00;2.78;;;;;;;20.09;nan;100526.25;5014079;28;20597;-82
2021/07/16 02:10:33;;;;;;;3.08;2.40;;;;;;;20.02;nan;100530.16;4983476;28;20034;-83
2021/07/16 02:12:59;;;;;;;5.75;2.60;;;;;;;20.03;nan;100528.34;5016794;28;20045;-83
2021/07/16 02:15:35;;;;;;;4.13;2.53;;;;;;;19.98;nan;100517.84;4979467;28;20039;-83
2021/07/16 02:18:00;;;;;;;2.78;2.22;;;;;;;19.92;nan;100528.84;5012452;28;20061;-82
2021/07/16 02:20:26;;;;;;;4.18;2.70;;;;;;;19.90;nan;100525.34;4998315;28;20034;-82
2021/07/16 02:22:53;;;;;;;3.28;2.53;;;;;;;19.81;nan;100526.63;4997385;28;20125;-83
2021/07/16 02:25:19;;;;;;;3.58;2.75;;;;;;;19.78;nan;100518.75;5012198;28;20039;-84
2021/07/16 02:27:51;;;;;;;3.67;2.60;;;;;;;19.79;nan;100522.28;4997498;28;20088;-84
2021/07/16 02:30:17;;;;;;;;;;;;;;;19.70;nan;100529.78;4984455;28;20058;-83
2021/07/16 02:32:44;;;;;;;5.07;2.58;;;;;;;19.73;nan;100523.44;5013523;28;19976;-83
2021/07/16 02:35:10;;;;;;;5.30;3.38;;;;;;;19.67;nan;100531.72;5014492;28;20543;-83
2021/07/16 02:37:37;;;;;;;4.03;2.67;;;;;;;19.59;nan;100523.13;5015372;28;20034;-84
2021/07/16 02:40:05;;;;;;;4.32;3.13;;;;;;;19.52;nan;100527.00;4982086;28;20030;-83
2021/07/16 02:42:30;;;;;;;5.28;3.25;;;;;;;19.49;nan;100520.88;5013708;28;20511;-83
2021/07/16 02:44:55;;;;;;;3.53;2.70;;;;;;;19.46;nan;100515.63;5011682;28;20046;-83
2021/07/16 02:47:21;;;;;;;4.03;2.67;;;;;;;19.38;nan;100511.53;5012567;28;20050;-84
2021/07/16 02:49:46;;;;;;;4.95;3.13;;;;;;;19.33;nan;100516.22;5014582;28;20018;-83
2021/07/16 02:52:11;;;;;;;5.57;3.83;;;;;;;19.26;nan;100511.13;4998418;28;20523;-83
2021/07/16 02:54:37;;;;;;;4.68;3.30;;;;;;;19.23;nan;100505.91;4979005;28;20443;-83
2021/07/16 02:57:03;;;;;;;4.93;3.65;;;;;;;19.22;nan;100505.97;4998012;28;20574;-84
2021/07/16 02:59:29;;;;;;;4.28;2.78;;;;;;;19.20;nan;100508.72;4977537;28;20070;-83
2021/07/16 03:01:55;;;;;;;5.25;3.55;;;;;;;19.19;nan;100514.13;4997736;28;20033;-84
2021/07/16 03:04:22;;;;;;;7.20;3.13;;;;;;;19.17;nan;100514.19;5011655;28;20034;-84
2021/07/16 03:06:48;;;;;;;4.07;2.70;;;;;;;19.18;nan;100517.75;4997840;28;20051;-84
2021/07/16 03:09:13;;;;;;;5.88;3.03;;;;;;;19.12;nan;100523.34;5008296;28;20509;-83
2021/07/16 03:11:39;;;;;;;5.65;3.40;;;;;;;19.09;nan;100529.69;5013357;28;20041;-83
2021/07/16 03:14:05;;;;;;;5.88;3.75;;;;;;;19.11;nan;100537.66;4997446;28;20042;-83
2021/07/16 03:16:31;;;;;;;5.88;4.13;;;;;;;19.13;nan;100536.66;4989868;28;20042;-84
2021/07/16 03:18:58;;;;;;;5.60;2.92;;;;;;;19.11;nan;100537.66;5010586;28;20492;-83
2021/07/16 03:21:23;;;;;;;4.30;2.67;;;;;;;19.09;nan;100535.03;4978423;28;20390;-84
2021/07/16 03:23:49;;;;;;;5.22;3.42;;;;;;;19.05;nan;100536.97;4993530;28;20034;-83
2021/07/16 03:26:14;;;;;;;4.45;3.08;;;;;;;19.03;nan;100546.00;4960834;28;20112;-84
2021/07/16 03:28:39;;;;;;;4.13;3.35;;;;;;;18.94;nan;100541.91;4996511;28;20045;-84
2021/07/16 03:31:05;;;;;;;5.85;3.72;;;;;;;18.90;nan;100550.09;4979701;28;20042;-83
2021/07/16 03:33:30;;;;;;;4.65;3.65;;;;;;;18.85;nan;100554.78;5010758;28;20034;-83
2021/07/16 03:35:55;;;;;;;5.40;3.70;;;;;;;18.77;nan;100555.94;5013701;28;20059;-82
2021/07/16 03:38:21;;;;;;;5.30;3.33;;;;;;;18.74;nan;100550.69;5008949;28;20077;-83
2021/07/16 03:40:52;;;;;;;9.73;4.32;;;;;;;18.73;nan;100553.41;5011711;28;20033;-83
2021/07/16 03:43:17;;;;;;;5.87;3.57;;;;;;;18.70;nan;100562.41;5005032;28;20057;-83
2021/07/16 03:45:43;;;;;;;6.05;4.40;;;;;;;18.66;nan;100568.84;5011678;28;20061;-83
2021/07/16 03:48:08;;;;;;;5.30;4.43;;;;;;;18.68;nan;100566.06;4991966;28;20033;-83
2021/07/16 03:50:34;;;;;;;4.90;3.30;;;;;;;18.68;nan;100566.97;4993048;28;20125;-83
2021/07/16 03:52:59;;;;;;;6.95;4.60;;;;;;;18.65;nan;100567.06;4995112;28;20041;-83
2021/07/16 03:55:25;;;;;;;7.55;4.38;;;;;;;18.66;nan;100568.84;5016237;28;20030;-83
2021/07/16 03:57:51;;;;;;;11.52;5.22;;;;;;;18.65;nan;100577.75;5008506;28;20040;-83
2021/07/16 04:00:28;;;;;;;6.28;4.03;;;;;;;18.61;nan;100584.19;4974545;28;20034;-82
2021/07/16 04:02:53;;;;;;;6.38;4.10;;;;;;;18.54;nan;100588.88;4988600;28;20042;-82
2021/07/16 04:05:19;;;;;;;4.40;3.58;;;;;;;18.61;nan;100576.16;4979233;28;20034;-82
2021/07/16 04:07:49;;;;;;;6.50;4.57;;;;;;;18.63;nan;100574.31;4992506;28;20033;-83
2021/07/16 04:10:21;;;;;;;6.35;3.72;;;;;;;18.62;nan;100572.53;5009162;28;20045;-83
2021/07/16 04:12:59;;;;;;;;;;;;;;;18.55;nan;100577.28;4991650;28;20044;-84
2021/07/16 04:15:25;;;;;;;5.47;3.85;;;;;;;18.66;nan;100584.88;5011411;28;19913;-85
2021/07/16 04:17:52;;;;;;;8.60;4.70;;;;;;;18.68;nan;100591.03;4994911;28;20034;-84
2021/07/16 04:20:17;;;;;;;5.25;4.30;;;;;;;18.71;nan;100590.03;5010066;28;20564;-82
2021/07/16 04:22:44;;;;;;;6.95;4.45;;;;;;;18.77;nan;100582.66;5008022;28;20038;-83
2021/07/16 04:25:14;;;;;;;8.15;4.85;;;;;;;18.76;nan;100580.94;4997765;28;20539;-84
2021/07/16 04:27:41;;;;;;;6.82;4.88;;;;;;;18.69;nan;100583.88;4996107;28;20044;-82
2021/07/16 04:33:19;;;;;;;18.90;6.82;;;;;;;18.82;nan;100582.50;3328365;26;20045;-82
2021/07/16 04:40:29;;;;;;;8.40;5.07;;;;;;;19.04;nan;100579.81;5029900;28;20046;-85
2021/07/16 04:44:13;;;;;;;7.30;4.70;;;;;;;19.12;nan;100590.22;4954280;28;20031;-84
2021/07/16 04:46:57;;;;;;;12.18;5.22;;;;;;;19.15;nan;100588.31;4944890;28;20063;-82
2021/07/16 04:49:23;;;;;;;8.85;5.65;;;;;;;19.21;nan;100593.41;5007444;28;20057;-81
2021/07/16 04:51:48;;;;;;;9.00;5.55;;;;;;;19.30;nan;100601.97;5023825;28;20037;-83
2021/07/16 04:54:16;;;;;;;9.45;5.43;;;;;;;19.33;nan;100599.16;5007117;28;20037;-82
2021/07/16 04:56:42;;;;;;;9.45;4.65;;;;;;;19.40;nan;100600.66;5006623;28;20040;-83
2021/07/16 04:59:07;;;;;;;8.20;4.25;;;;;;;19.53;nan;100609.91;5023707;28;20116;-83
2021/07/16 05:23:58;;;;;;;7.38;4.13;;;;;;;20.36;nan;100619.75;4995117;28;20049;-83
2021/07/16 05:31:00;;;;;;;9.43;3.53;;;;;;;20.65;nan;100633.66;4983310;28;20061;-84
2021/07/16 05:42:35;;;;;;;7.88;3.78;;;;;;;20.79;nan;100641.91;4862654;29;20059;-83
2021/07/16 05:45:56;;;;;;;5.70;3.42;;;;;;;20.92;nan;100640.41;4827677;29;20853;-83
2021/07/16 05:49:33;;;;;;;;;;;;;;;;;;;;;
2021/07/16 05:52:37;;;;;;;5.65;3.70;;;;;;;20.75;nan;100637.63;4778408;29;20046;-83
2021/07/16 05:59:45;;;;;;;6.28;3.80;;;;;;;21.07;nan;100636.13;4877498;29;20127;-83
2021/07/16 06:02:40;;;;;;;7.07;3.40;;;;;;;21.10;nan;100645.84;4943345;28;20457;-83
2021/07/16 06:12:30;;;;;;;9.38;5.20;;;;;;;21.36;nan;100647.25;4994860;28;20121;-83
2021/07/16 06:14:56;;;;;;;13.38;4.82;;;;;;;21.50;nan;100657.34;5000215;28;20054;-83
2021/07/16 06:17:22;;;;;;;5.07;3.05;;;;;;;21.56;nan;100670.44;4982475;28;20050;-83
2021/07/16 06:19:47;;;;;;;7.72;3.85;;;;;;;21.58;nan;100668.56;4942923;28;1001177;-83
2021/07/16 06:22:13;;;;;;;9.13;3.60;;;;;;;21.67;nan;100673.50;4983970;28;20041;-83
2021/07/16 06:24:38;;;;;;;5.60;3.40;;;;;;;21.81;nan;100672.78;5000863;28;20723;-83
2021/07/16 06:27:04;;;;;;;6.13;3.30;;;;;;;22.00;nan;100678.94;5001226;28;20066;-83
2021/07/16 06:35:27;;;;;;;7.38;4.25;;;;;;;22.57;nan;100670.63;4992843;28;20078;-83
2021/07/16 06:41:51;;;;;;;4.93;3.53;;;;;;;22.90;nan;100676.00;4987454;28;20045;-84
2021/07/16 06:44:16;;;;;;;6.43;3.45;;;;;;;23.13;nan;100676.56;4972692;28;20031;-84
2021/07/16 06:54:34;;;;;;;7.03;3.15;;;;;;;23.34;nan;100669.09;4993847;28;20065;-83
2021/07/16 06:58:10;;;;;;;;;;;;;;;;;;;;;
2021/07/16 07:08:26;;;;;;;5.03;3.78;;;;;;;23.30;nan;100678.31;4901135;29;20139;-84
2021/07/16 07:11:33;;;;;;;7.13;3.95;;;;;;;23.21;nan;100682.38;4931440;28;20054;-84
2021/07/16 07:17:52;;;;;;;10.40;3.90;;;;;;;23.41;nan;100675.88;4954062;28;20046;-84
2021/07/16 07:32:14;;;;;;;6.82;4.82;;;;;;;24.44;nan;100684.19;4893158;29;20276;-84
2021/07/16 07:35:32;;;;;;;;;;;;;;;;;;;;;
2021/07/16 07:39:20;;;;;;;7.13;4.35;;;;;;;24.73;nan;100684.19;4925786;28;20121;-84
2021/07/16 07:45:39;;;;;;;6.68;4.03;;;;;;;24.69;nan;100685.34;4920721;29;20052;-83
2021/07/16 07:48:25;;;;;;;5.35;4.15;;;;;;;24.66;nan;100688.25;4906085;29;20036;-83
2021/07/16 07:58:33;;;;;;;6.38;4.18;;;;;;;24.92;nan;100683.91;4859436;29;20116;-84
2021/07/16 08:00:58;;;;;;;9.13;5.07;;;;;;;24.85;nan;100699.59;4856108;29;20079;-83
2021/07/16 08:03:24;;;;;;;6.30;4.00;;;;;;;24.88;nan;100682.34;4868000;29;20063;-83
2021/07/16 08:05:50;;;;;;;6.15;4.03;;;;;;;24.88;nan;100688.59;4972516;28;20047;-83
2021/07/16 08:08:15;;;;;;;6.68;4.00;;;;;;;24.82;nan;100696.25;4975155;28;20331;-84
2021/07/16 08:10:41;;;;;;;8.55;5.38;;;;;;;24.78;nan;100690.16;4972987;28;20065;-84
2021/07/16 08:13:06;;;;;;;8.23;4.55;;;;;;;24.91;nan;100685.72;4993273;28;20030;-84
2021/07/16 08:15:32;;;;;;;7.82;4.13;;;;;;;24.91;nan;100683.00;4988643;28;20405;-84
2021/07/16 08:17:57;;;;;;;8.52;6.75;;;;;;;24.91;nan;100688.41;4992626;28;20081;-84
2021/07/16 08:20:23;;;;;;;8.98;4.88;;;;;;;25.14;nan;100686.09;4989537;28;20038;-84
2021/07/16 08:22:48;;;;;;;7.93;5.45;;;;;;;25.21;nan;100690.16;4990928;28;20077;-83
2021/07/16 08:25:14;;;;;;;8.45;5.07;;;;;;;25.35;nan;100678.44;4972789;28;20094;-84
2021/07/16 08:27:41;;;;;;;10.18;4.97;;;;;;;25.44;nan;100682.38;4989419;28;20027;-84
2021/07/16 08:30:08;;;;;;;7.85;4.95;;;;;;;25.32;nan;100687.63;4991235;28;20034;-84
2021/07/16 08:32:33;;;;;;;9.10;4.93;;;;;;;25.27;nan;100692.44;4969358;28;20089;-83
2021/07/16 08:34:58;;;;;;;8.90;4.72;;;;;;;25.35;nan;100689.25;4988651;28;20026;-83
2021/07/16 08:37:24;;;;;;;6.63;5.35;;;;;;;25.54;nan;100688.91;4973100;28;20050;-83
2021/07/16 08:39:49;;;;;;;7.97;5.93;;;;;;;25.68;nan;100691.56;4991801;28;20038;-84
2021/07/16 08:42:15;;;;;;;12.15;6.25;;;;;;;25.61;nan;100692.94;4989225;28;20041;-83
2021/07/16 08:44:43;;;;;;;8.90;6.43;;;;;;;25.59;nan;100697.56;4973804;28;20042;-83
2021/07/16 08:47:10;;;;;;;8.18;6.63;;;;;;;25.70;nan;100689.63;4969498;28;20147;-83
2021/07/16 08:49:37;;;;;;;10.48;6.13;;;;;;;25.66;nan;100704.31;4990834;28;20415;-83
2021/07/16 08:52:03;;;;;;;8.70;5.90;;;;;;;25.77;nan;100701.75;4971098;28;20042;-84
2021/07/16 08:54:30;;;;;;;10.05;7.18;;;;;;;25.76;nan;100705.44;4991734;28;20432;-84
2021/07/16 08:56:55;;;;;;;12.38;7.35;;;;;;;25.65;nan;100699.88;4987034;28;20030;-83
2021/07/16 08:59:20;;;;;;;10.10;7.43;;;;;;;25.53;nan;100698.00;4990830;28;20113;-83
2021/07/16 09:04:35;;;;;;;9.38;6.70;;;;;;;25.30;nan;100715.69;4081512;26;20775;-83
2021/07/16 09:07:22;;;;;;;10.65;7.45;;;;;;;25.32;nan;100717.34;4971560;28;20111;-84
2021/07/16 09:53:52;;;;;;;;;;;;;;;;;;;;;
2021/07/16 09:57:16;;;;;;;16.27;14.57;;;;;;;25.53;nan;100730.41;4978833;28;20045;-84
2021/07/16 09:59:44;;;;;;;17.08;15.25;;;;;;;25.55;nan;100732.06;4974625;28;20035;-84
2021/07/16 10:02:12;;;;;;;18.83;13.85;;;;;;;25.50;nan;100730.63;4976224;28;20046;-83
2021/07/16 10:04:38;;;;;;;16.35;14.40;;;;;;;25.40;nan;100724.09;4952797;28;20046;-84
2021/07/16 10:07:03;;;;;;;16.92;15.18;;;;;;;25.37;nan;100725.16;4973946;28;20043;-84
2021/07/16 10:09:29;;;;;;;17.60;15.32;;;;;;;25.58;nan;100726.44;4968812;28;20121;-82
2021/07/16 10:11:56;;;;;;;19.58;15.00;;;;;;;25.56;nan;100754.53;4972915;28;20042;-83
2021/07/16 10:14:22;;;;;;;19.88;14.48;;;;;;;25.44;nan;100736.41;4983202;28;20039;-83
2021/07/16 10:16:51;;;;;;;17.38;15.18;;;;;;;25.57;nan;100727.41;4974282;28;20046;-84
2021/07/16 10:19:17;;;;;;;16.80;15.00;;;;;;;25.54;nan;100734.84;4942844;28;20031;-84
2021/07/16 10:21:44;;;;;;;18.52;16.20;;;;;;;25.55;nan;100734.75;4963060;28;20050;-84
2021/07/16 10:24:12;;;;;;;17.88;15.40;;;;;;;25.57;nan;100729.22;4963111;28;20031;-84
2021/07/16 10:26:38;;;;;;;19.77;15.07;;;;;;;25.71;nan;100737.31;4936771;28;20129;-84
2021/07/16 10:29:31;;;;;;;15.88;14.25;;;;;;;25.85;nan;100738.25;4971032;28;20031;-84
2021/07/16 10:31:57;;;;;;;16.65;14.95;;;;;;;25.94;nan;100734.97;4968734;28;20050;-84
2021/07/16 10:34:28;;;;;;;17.48;15.23;;;;;;;25.98;nan;100731.06;4949494;29;20039;-84
2021/07/16 10:36:57;;;;;;;17.38;15.10;;;;;;;26.10;nan;100718.56;4949596;28;20047;-84
2021/07/16 10:39:39;;;;;;;17.02;14.85;;;;;;;26.34;nan;100743.06;4973214;28;20488;-83
2021/07/16 10:42:23;;;;;;;;;;;;;;;26.13;nan;100723.75;4980351;28;20085;-84
2021/07/16 10:44:48;;;;;;;16.45;14.05;;;;;;;26.55;nan;100725.34;4947891;28;19922;-83
2021/07/16 10:47:38;;;;;;;14.65;12.73;;;;;;;26.70;nan;100727.94;4957731;28;20053;-84
2021/07/16 10:50:44;;;;;;;15.18;12.85;;;;;;;26.77;nan;100731.97;4971260;23;20066;-83
2021/07/16 10:57:15;;;;;;;17.05;13.30;;;;;;;27.26;nan;100715.78;4965782;28;20466;-83
2021/07/16 10:59:48;;;;;;;16.98;13.40;;;;;;;26.91;nan;100726.44;4966904;28;20564;-84
2021/07/16 11:02:45;;;;;;;14.45;12.95;;;;;;;26.91;nan;100736.38;4973792;28;20051;-84
2021/07/16 11:05:47;;;;;;;17.13;12.80;;;;;;;27.17;nan;100718.25;4970402;28;20074;-84
2021/07/16 11:08:41;;;;;;;12.38;10.45;;;;;;;27.44;nan;100732.53;4958948;28;20035;-84
2021/07/16 11:11:20;;;;;;;12.77;10.38;;;;;;;27.44;nan;100723.53;4949575;28;20043;-84
2021/07/16 11:14:37;;;;;;;14.55;11.85;;;;;;;27.44;nan;100723.53;4955419;28;20481;-83
2021/07/16 11:20:59;;;;;;;12.77;10.73;;;;;;;27.62;nan;100715.91;4998378;23;20108;-76
2021/07/16 11:23:49;;;;;;;14.20;10.95;;;;;;;27.71;nan;100729.63;4986432;28;20409;-76
2021/07/16 11:26:16;;;;;;;12.52;9.95;;;;;;;27.93;nan;100723.47;4982462;28;20043;-76
2021/07/16 11:28:41;;;;;;;12.80;10.43;;;;;;;28.03;nan;100720.06;4985878;28;20490;-76
2021/07/16 11:31:06;;;;;;;12.70;9.80;;;;;;;28.16;nan;100726.25;4983132;28;20038;-76
2021/07/16 11:33:32;;;;;;;12.40;9.55;;;;;;;28.19;nan;100720.59;4984888;28;20042;-76
2021/07/16 11:35:59;;;;;;;9.60;8.35;;;;;;;28.37;nan;100724.63;4983733;28;20038;-76
2021/07/16 11:38:25;;;;;;;11.23;8.63;;;;;;;28.39;nan;100716.34;4983789;28;20054;-76
2021/07/16 11:40:51;;;;;;;12.57;9.45;;;;;;;28.57;nan;100722.22;4981915;28;20045;-76
2021/07/16 11:43:16;;;;;;;12.30;10.27;;;;;;;28.90;nan;100728.66;4981317;28;20092;-77
2021/07/16 11:45:43;;;;;;;13.13;9.38;;;;;;;29.06;nan;100721.06;4988335;28;20405;-77
2021/07/16 11:48:14;;;;;;;12.95;10.25;;;;;;;29.37;nan;100719.44;4987461;28;20110;-76
2021/07/16 11:50:40;;;;;;;13.77;8.98;;;;;;;29.72;nan;100710.22;4985263;28;20417;-76
2021/07/16 11:53:06;;;;;;;11.05;9.63;;;;;;;29.72;nan;100731.13;4971926;28;20050;-76
2021/07/16 11:55:31;;;;;;;10.43;8.90;;;;;;;29.79;nan;100721.44;4985264;28;20121;-76
2021/07/16 11:57:59;;;;;;;11.02;8.98;;;;;;;30.19;nan;100709.91;4982022;28;20042;-76
2021/07/16 12:00:28;;;;;;;11.57;9.43;;;;;;;30.30;nan;100721.63;4984788;28;20035;-76
2021/07/16 12:03:06;;;;;;;12.02;10.82;;;;;;;30.17;nan;100714.59;4981998;28;20109;-76
2021/07/16 12:05:33;;;;;;;12.38;9.63;;;;;;;30.25;nan;100709.41;4985638;28;20045;-76
2021/07/16 12:07:59;;;;;;;13.50;10.38;;;;;;;30.53;nan;100697.84;4983592;28;20119;-76
2021/07/16 12:10:25;;;;;;;15.55;10.57;;;;;;;30.40;nan;100716.25;4967612;28;20050;-76
2021/07/16 12:12:57;;;;;;;12.02;9.93;;;;;;;29.95;nan;100713.72;4981868;28;20031;-76
2021/07/16 12:15:23;;;;;;;10.77;9.32;;;;;;;29.30;nan;100720.06;4984411;28;20034;-76
2021/07/16 12:17:52;;;;;;;11.63;9.82;;;;;;;29.73;nan;100724.69;4981959;28;20027;-76
2021/07/16 12:20:20;;;;;;;11.52;10.13;;;;;;;29.98;nan;100712.59;4985436;28;20038;-76
2021/07/16 12:22:47;;;;;;;10.63;9.55;;;;;;;30.05;nan;100709.22;4991295;28;20378;-76
2021/07/16 12:25:15;;;;;;;11.20;9.27;;;;;;;30.35;nan;100715.78;4954368;28;20134;-76
2021/07/16 12:27:41;;;;;;;11.43;9.88;;;;;;;30.84;nan;100711.50;4981901;28;20039;-77
2021/07/16 12:30:08;;;;;;;15.63;9.63;;;;;;;30.99;nan;100718.34;4989767;28;20053;-76
2021/07/16 12:32:39;;;;;;;10.48;9.35;;;;;;;31.09;nan;100723.78;4985903;28;20046;-76
2021/07/16 12:35:13;;;;;;;11.18;10.07;;;;;;;31.39;nan;100712.03;4989518;28;20027;-77
2021/07/16 12:37:40;;;;;;;10.48;9.35;;;;;;;31.77;nan;100725.88;4987290;28;20536;-76
2021/07/16 12:40:06;;;;;;;9.57;8.60;;;;;;;31.57;nan;100714.06;4981420;28;20094;-77
2021/07/16 12:42:35;;;;;;;10.60;8.65;;;;;;;31.39;nan;100709.31;4984678;28;20038;-77
2021/07/16 12:45:08;;;;;;;10.10;8.30;;;;;;;31.37;nan;100714.03;4985803;28;20133;-77
2021/07/16 12:47:48;;;;;;;11.38;9.05;;;;;;;31.24;nan;100707.94;4983977;28;20038;-76
2021/07/16 12:50:17;;;;;;;11.30;8.63;;;;;;;31.22;nan;100696.28;4962531;28;20053;-77
2021/07/16 12:53:00;;;;;;;9.88;8.88;;;;;;;31.31;nan;100711.84;4983317;28;20074;-76
2021/07/16 12:55:30;;;;;;;11.85;9.13;;;;;;;31.49;nan;100705.72;4981117;28;20031;-77
2021/07/16 12:58:10;;;;;;;9.13;8.20;;;;;;;31.64;nan;100698.84;4984025;28;20035;-77
2021/07/16 13:00:39;;;;;;;9.07;8.18;;;;;;;31.67;nan;100699.41;4985245;28;20045;-77
2021/07/16 13:03:20;;;;;;;11.00;7.88;;;;;;;31.92;nan;100696.31;4983178;28;20046;-77
2021/07/16 13:05:47;;;;;;;10.10;8.13;;;;;;;32.15;nan;100702.34;4980623;28;20508;-76
2021/07/16 13:08:19;;;;;;;10.35;7.55;;;;;;;31.97;nan;100700.34;4984401;28;20042;-76
2021/07/16 13:11:02;;;;;;;8.73;7.80;;;;;;;31.82;nan;100701.75;4980874;28;20054;-77
2021/07/16 13:13:34;;;;;;;8.50;7.57;;;;;;;31.66;nan;100715.94;4982277;28;20061;-77
2021/07/16 13:16:12;;;;;;;8.95;7.65;;;;;;;31.77;nan;100702.16;4982965;28;20038;-77
2021/07/16 13:18:39;;;;;;;9.23;8.00;;;;;;;32.13;nan;100709.81;4980717;28;20046;-77
2021/07/16 13:21:05;;;;;;;8.20;7.38;;;;;;;32.78;nan;100704.53;4974456;28;20042;-77
2021/07/16 13:23:32;;;;;;;13.38;7.05;;;;;;;33.15;nan;100696.34;4980853;28;20045;-77
2021/07/16 13:25:58;;;;;;;8.20;7.40;;;;;;;33.56;nan;100691.38;4983059;28;20046;-77
2021/07/16 13:28:23;;;;;;;8.15;7.30;;;;;;;33.51;nan;100696.41;4981571;28;20047;-77
2021/07/16 13:30:49;;;;;;;10.35;7.10;;;;;;;33.47;nan;100703.22;4982606;28;20097;-77
2021/07/16 13:33:15;;;;;;;9.23;8.32;;;;;;;32.67;nan;100689.19;4982357;28;20065;-77
2021/07/16 13:35:40;;;;;;;11.40;8.00;;;;;;;32.71;nan;100687.88;4981792;28;20035;-77
2021/07/16 13:38:05;;;;;;;7.75;6.85;;;;;;;33.24;nan;100684.50;4986576;28;20108;-77
2021/07/16 13:40:30;;;;;;;10.73;8.50;;;;;;;33.43;nan;100688.13;4980902;28;20098;-77
2021/07/16 13:42:56;;;;;;;8.25;7.45;;;;;;;33.72;nan;100682.47;4984040;28;20042;-77
2021/07/16 13:45:21;;;;;;;8.30;7.43;;;;;;;34.15;nan;100680.84;4980075;28;20481;-77
2021/07/16 13:47:46;;;;;;;10.88;7.93;;;;;;;34.48;nan;100677.31;4947010;28;20033;-77
2021/07/16 13:50:12;;;;;;;11.00;8.30;;;;;;;34.26;nan;100675.94;4983139;28;20121;-77
2021/07/16 13:52:37;;;;;;;9.52;8.55;;;;;;;34.40;nan;100676.38;4981313;28;20129;-77
2021/07/16 13:55:03;;;;;;;10.73;8.82;;;;;;;34.31;nan;100672.75;4961396;28;20039;-77
2021/07/16 13:57:29;;;;;;;8.88;7.93;;;;;;;34.96;nan;100687.91;4982295;28;20116;-77
2021/07/16 13:59:54;;;;;;;16.55;10.30;;;;;;;34.83;nan;100682.84;4982429;28;20038;-77
2021/07/16 14:02:20;;;;;;;9.68;8.40;;;;;;;34.43;nan;100687.91;4984492;28;20089;-77
2021/07/16 14:04:45;;;;;;;10.82;8.38;;;;;;;34.55;nan;100691.22;4967895;28;20117;-76
2021/07/16 14:07:10;;;;;;;8.90;8.10;;;;;;;34.72;nan;100675.78;4986520;28;20069;-77
2021/07/16 14:09:36;;;;;;;8.98;8.13;;;;;;;35.04;nan;100680.56;4985590;28;20077;-77
2021/07/16 14:12:02;;;;;;;9.15;7.80;;;;;;;35.30;nan;100668.69;4984806;28;20038;-77
2021/07/16 14:14:27;;;;;;;8.68;7.88;;;;;;;35.39;nan;100677.78;4985910;28;20389;-77
2021/07/16 14:16:53;;;;;;;9.82;8.20;;;;;;;36.10;nan;100673.63;4983942;28;20065;-77
2021/07/16 14:19:18;;;;;;;8.68;7.43;;;;;;;36.40;nan;100678.41;4973762;28;20722;-77
2021/07/16 14:21:43;;;;;;;10.27;7.03;;;;;;;35.57;nan;100667.53;4985487;28;20042;-77
2021/07/16 14:24:09;;;;;;;9.55;7.10;;;;;;;35.51;nan;100677.31;4983030;28;20048;-78
2021/07/16 14:26:34;;;;;;;8.40;7.60;;;;;;;35.50;nan;100678.34;4986363;28;20046;-77
2021/07/16 14:29:00;;;;;;;7.88;7.07;;;;;;;35.84;nan;100671.88;4984431;28;20066;-77
2021/07/16 14:31:25;;;;;;;10.05;8.55;;;;;;;36.29;nan;100675.16;4987335;28;20406;-77
2021/07/16 14:33:51;;;;;;;8.73;7.82;;;;;;;36.23;nan;100681.34;4987392;28;20036;-77
2021/07/16 14:36:17;;;;;;;12.15;8.43;;;;;;;35.90;nan;100676.69;4987538;28;20034;-77
2021/07/16 14:38:42;;;;;;;9.15;7.07;;;;;;;36.19;nan;100670.72;4984240;28;20462;-77
2021/07/16 14:41:07;;;;;;;11.20;7.90;;;;;;;35.97;nan;100665.88;4985851;28;20027;-77